Main page
METAR-TAF:

METAR-TAF

Airports :

Houston, Texas, United States

George Bush Intercontinental Airport

latitude: 29-59-33N, longitude: 095-21-50W, elevation: 29 m

Current weather observation

The report was made 21 minutes ago, at 03:53 UTC
Wind 5 kt from the North/Northwest
Temperature 17°C
Humidity 77%
Pressure 1021 hPa
Visibility: 16.1 km
Clear sky

METAR: KIAH 230353Z 34005KT 10SM CLR 17/13 A3014 RMK AO2 SLP204 T01720133

Time: 23:14 (04:14 UTC)

Forecast

The report was made 35 minutes ago, at 03:39 UTC
Forecast valid from 23 at 04 UTC to 24 at 06 UTC
Wind 6 kt from the North/Northwest
Visibility: 10 km
Clear sky

TAF: KIAH 230339Z 2304/2406 34006KT P6SM SKC

Weather observations and forecasts of more than 4000 airports (METAR and TAF reports).

The available stations are represented by yellow and red dots on the map.

Hover mouse over dot to see the name of the station.

Then click to see weather observations and forecasts.

To change the map : click on the green buttons with a black cross to zoom in, on the green button with a dash to zoom out, or on the green arrows for adjacent maps.


METAR-TAF: